createdAt,value
2017-12-22T00:01:06.013Z,6.32
2017-12-22T00:07:17.278Z,6.55
2017-12-22T00:09:47.896Z,6.30
2017-12-22T00:12:20.994Z,6.39
2017-12-22T00:14:53.274Z,6.30
2017-12-22T00:17:25.341Z,6.10
2017-12-22T00:19:55.376Z,6.24
2017-12-22T00:22:30.694Z,6.22
2017-12-22T00:25:01.420Z,6.03
2017-12-22T00:27:34.390Z,5.90
2017-12-22T00:30:10.132Z,6.08
2017-12-22T00:32:40.740Z,6.29
2017-12-22T00:35:11.023Z,6.23
2017-12-22T00:37:41.470Z,6.37
2017-12-22T00:40:12.696Z,6.38
2017-12-22T00:42:45.059Z,6.27
2017-12-22T00:45:17.093Z,6.20
2017-12-22T00:47:48.417Z,6.18
2017-12-22T00:50:19.165Z,6.15
2017-12-22T00:52:49.291Z,6.03
2017-12-22T00:55:19.976Z,5.93
2017-12-22T00:57:50.311Z,6.09
2017-12-22T01:00:21.352Z,5.97
2017-12-22T01:02:51.880Z,6.23
2017-12-22T01:05:22.247Z,6.06
2017-12-22T01:07:52.140Z,6.30
2017-12-22T01:10:21.863Z,6.35
2017-12-22T01:12:51.732Z,6.18
2017-12-22T01:15:26.385Z,6.11
2017-12-22T01:20:06.202Z,6.35
2017-12-22T01:22:38.697Z,6.43
2017-12-22T01:25:12.302Z,6.20
2017-12-22T01:27:43.231Z,6.11
2017-12-22T01:30:18.283Z,6.40
2017-12-22T01:32:51.029Z,6.25
2017-12-22T01:35:23.511Z,6.17
2017-12-22T01:41:20.006Z,6.18
2017-12-22T01:43:50.057Z,5.97
2017-12-22T01:46:20.257Z,6.28
2017-12-22T01:48:50.292Z,5.91
2017-12-22T01:51:20.199Z,5.93
2017-12-22T01:53:49.866Z,5.91
2017-12-22T01:56:19.952Z,6.01
2017-12-22T01:58:51.468Z,6.10
2017-12-22T02:01:22.532Z,6.25
2017-12-22T02:03:53.010Z,6.07
2017-12-22T02:06:24.599Z,6.01
2017-12-22T02:08:56.371Z,6.11
2017-12-22T02:11:27.916Z,6.01
2017-12-22T02:13:59.449Z,5.86
2017-12-22T02:16:33.160Z,5.69
2017-12-22T02:19:04.651Z,5.78
2017-12-22T02:21:34.879Z,5.72
2017-12-22T02:24:05.679Z,5.65
2017-12-22T02:26:36.262Z,5.88
2017-12-22T02:29:07.167Z,5.80
2017-12-22T02:31:38.093Z,5.84
2017-12-22T02:34:08.179Z,5.91
2017-12-22T02:36:39.557Z,5.86
2017-12-22T02:39:12.916Z,5.93
2017-12-22T02:41:44.292Z,5.94
2017-12-22T02:44:14.362Z,6.01
2017-12-22T02:46:46.598Z,5.86
2017-12-22T02:49:17.202Z,6.05
2017-12-22T02:51:49.779Z,5.94
2017-12-22T02:54:21.081Z,5.74
2017-12-22T02:56:55.505Z,5.97
2017-12-22T02:59:28.374Z,6.01
2017-12-22T03:02:04.629Z,5.83
2017-12-22T03:04:38.732Z,5.82
2017-12-22T03:07:14.127Z,5.90
2017-12-22T03:09:47.148Z,6.13
2017-12-22T03:12:29.674Z,6.09
2017-12-22T03:15:05.276Z,5.96
2017-12-22T03:17:36.402Z,5.95
2017-12-22T03:20:13.390Z,6.00
2017-12-22T03:22:47.348Z,6.09
2017-12-22T03:25:19.142Z,5.93
2017-12-22T03:27:53.652Z,6.08
2017-12-22T03:30:26.285Z,5.88
2017-12-22T03:32:59.071Z,5.89
2017-12-22T03:35:31.703Z,5.85
2017-12-22T03:38:01.673Z,5.99
2017-12-22T03:40:37.361Z,5.96
2017-12-22T03:43:08.557Z,6.00
2017-12-22T03:45:41.106Z,5.89
2017-12-22T03:48:12.058Z,5.89
2017-12-22T03:50:44.039Z,5.71
2017-12-22T03:53:14.796Z,5.94
2017-12-22T03:55:44.841Z,5.91
2017-12-22T03:58:14.954Z,5.93
2017-12-22T04:00:48.082Z,5.89
2017-12-22T04:03:20.979Z,5.97
2017-12-22T04:05:51.003Z,6.05
2017-12-22T04:08:20.855Z,5.84
2017-12-22T04:10:50.933Z,6.01
2017-12-22T04:13:21.067Z,6.02
2017-12-22T04:15:51.268Z,5.93
2017-12-22T04:18:21.310Z,5.91
2017-12-22T04:20:51.009Z,5.90
2017-12-22T04:23:20.638Z,5.89
2017-12-22T04:25:50.422Z,5.93
2017-12-22T04:28:20.385Z,5.99
2017-12-22T04:30:50.771Z,6.10
2017-12-22T04:33:20.358Z,5.96
2017-12-22T04:35:50.104Z,5.96
2017-12-22T04:38:19.658Z,6.01
2017-12-22T04:40:49.244Z,5.95
2017-12-22T04:43:18.803Z,5.92
2017-12-22T04:45:48.697Z,5.89
2017-12-22T04:48:18.235Z,6.02
2017-12-22T04:50:47.752Z,6.00
2017-12-22T04:53:17.867Z,6.15
2017-12-22T04:55:47.855Z,6.18
2017-12-22T04:58:17.413Z,5.85
2017-12-22T05:00:47.407Z,5.81
2017-12-22T05:03:17.805Z,6.00
2017-12-22T05:05:47.268Z,5.93
2017-12-22T05:08:16.925Z,6.22
2017-12-22T05:10:47.031Z,5.96
2017-12-22T05:13:16.934Z,6.21
2017-12-22T05:15:46.766Z,6.20
2017-12-22T05:18:16.499Z,6.22
2017-12-22T05:20:46.192Z,6.11
2017-12-22T05:23:16.111Z,6.26
2017-12-22T05:25:45.678Z,6.18
2017-12-22T05:28:15.379Z,6.11
2017-12-22T05:30:45.201Z,6.09
2017-12-22T05:33:14.820Z,6.10
2017-12-22T05:35:44.426Z,6.10
2017-12-22T05:38:14.879Z,6.32
2017-12-22T05:40:44.653Z,6.22
2017-12-22T05:43:15.777Z,6.06
2017-12-22T05:45:45.960Z,5.95
2017-12-22T05:48:16.008Z,6.15
2017-12-22T05:50:45.985Z,5.91
2017-12-22T05:53:16.211Z,5.90
2017-12-22T05:55:45.786Z,6.09
2017-12-22T05:58:15.769Z,6.06
2017-12-22T06:00:46.907Z,5.99
2017-12-22T06:03:17.919Z,6.36
2017-12-22T06:05:47.646Z,6.23
2017-12-22T06:08:17.349Z,6.18
2017-12-22T06:10:48.156Z,6.35
2017-12-22T06:13:19.450Z,6.40
2017-12-22T06:15:49.806Z,6.28
2017-12-22T06:18:19.366Z,6.29
2017-12-22T06:20:49.263Z,6.29
2017-12-22T06:23:20.141Z,6.39
2017-12-22T06:25:50.860Z,6.34
2017-12-22T06:28:20.814Z,6.30
2017-12-22T06:30:50.856Z,6.44
2017-12-22T06:33:20.678Z,6.37
2017-12-22T06:35:50.832Z,6.35
2017-12-22T06:38:20.532Z,6.35
2017-12-22T06:40:51.515Z,6.39
2017-12-22T06:43:21.563Z,6.37
2017-12-22T06:45:51.439Z,6.24
2017-12-22T06:48:21.109Z,6.33
2017-12-22T06:50:50.728Z,6.35
2017-12-22T06:53:21.559Z,6.19
2017-12-22T06:55:51.247Z,6.26
2017-12-22T06:58:22.030Z,6.19
2017-12-22T07:00:52.690Z,6.25
2017-12-22T07:03:22.352Z,6.35
2017-12-22T07:05:51.868Z,6.58
2017-12-22T07:08:21.768Z,6.46
2017-12-22T07:10:51.832Z,6.38
2017-12-22T07:13:30.053Z,6.48
2017-12-22T07:16:00.183Z,6.68
2017-12-22T07:18:30.535Z,6.55
2017-12-22T07:21:00.960Z,6.68
2017-12-22T07:23:37.610Z,6.43
2017-12-22T07:26:08.771Z,6.46
2017-12-22T07:28:39.956Z,6.56
2017-12-22T07:31:13.201Z,6.44
2017-12-22T07:33:44.537Z,6.55
2017-12-22T07:36:16.958Z,6.69
2017-12-22T07:38:49.189Z,6.58
2017-12-22T07:41:27.976Z,6.59
2017-12-22T07:44:05.627Z,6.51
2017-12-22T07:46:36.115Z,6.44
2017-12-22T07:49:08.961Z,6.45
2017-12-22T07:51:39.559Z,6.49
2017-12-22T07:54:13.018Z,6.49
2017-12-22T07:56:48.771Z,6.56
2017-12-22T07:59:20.766Z,6.36
2017-12-22T08:01:58.978Z,6.48
2017-12-22T08:04:29.986Z,6.49
2017-12-22T08:07:04.469Z,6.83
2017-12-22T08:09:36.462Z,6.87
2017-12-22T08:12:10.158Z,6.87
2017-12-22T08:14:40.940Z,6.89
2017-12-22T08:17:14.696Z,6.94
2017-12-22T08:19:46.329Z,7.12
2017-12-22T08:25:02.363Z,7.06
2017-12-22T08:27:34.064Z,6.76
2017-12-22T08:30:22.228Z,6.99
2017-12-22T08:35:48.139Z,6.91
2017-12-22T08:38:29.841Z,6.92
2017-12-22T08:41:02.080Z,6.93
2017-12-22T08:43:33.022Z,7.07
2017-12-22T08:46:03.006Z,7.11
2017-12-22T08:48:32.832Z,6.82
2017-12-22T08:51:02.529Z,6.85
2017-12-22T08:53:32.927Z,6.75
2017-12-22T08:56:03.098Z,7.06
2017-12-22T08:58:32.719Z,6.89
2017-12-22T09:01:04.554Z,6.72
2017-12-22T09:03:34.475Z,6.94
2017-12-22T09:06:05.207Z,6.68
2017-12-22T09:08:35.116Z,6.91
2017-12-22T09:11:05.258Z,7.09
2017-12-22T09:13:34.923Z,6.80
2017-12-22T09:16:06.579Z,6.88
2017-12-22T09:18:37.019Z,7.12
2017-12-22T09:21:17.870Z,7.28
2017-12-22T09:24:05.617Z,7.09
2017-12-22T09:26:35.640Z,6.90
2017-12-22T09:29:05.859Z,7.19
2017-12-22T09:34:33.343Z,7.07
2017-12-22T09:37:06.666Z,7.03
2017-12-22T09:39:37.504Z,7.17
2017-12-22T09:43:07.636Z,7.18
2017-12-22T09:45:39.339Z,7.21
2017-12-22T09:48:10.351Z,7.39
2017-12-22T09:50:48.113Z,7.39
2017-12-22T09:56:46.241Z,7.45
2017-12-22T09:59:16.121Z,7.49
2017-12-22T10:01:45.971Z,7.69
2017-12-22T10:04:17.166Z,7.45
2017-12-22T10:06:47.048Z,7.38
2017-12-22T10:09:16.690Z,7.61
2017-12-22T10:11:47.421Z,7.89
2017-12-22T10:14:17.816Z,7.81
2017-12-22T10:16:49.929Z,7.91
2017-12-22T10:19:20.371Z,7.78
2017-12-22T10:21:49.881Z,8.09
2017-12-22T10:24:19.792Z,8.11
2017-12-22T10:26:50.736Z,8.20
2017-12-22T10:29:22.041Z,8.30
2017-12-22T10:31:51.626Z,8.18
2017-12-22T10:34:21.964Z,7.95
2017-12-22T10:36:52.047Z,7.95
2017-12-22T10:39:23.585Z,7.88
2017-12-22T10:41:55.615Z,7.88
2017-12-22T10:44:26.035Z,8.12
2017-12-22T10:46:55.731Z,8.33
2017-12-22T10:49:26.642Z,8.08
2017-12-22T10:51:56.619Z,8.10
2017-12-22T10:54:28.733Z,8.28
2017-12-22T10:56:58.772Z,8.55
2017-12-22T10:59:32.394Z,8.05
2017-12-22T11:16:54.144Z,8.46
2017-12-22T11:19:27.457Z,8.17
2017-12-22T11:21:57.917Z,8.07
2017-12-22T11:24:28.396Z,8.01
2017-12-22T11:26:59.567Z,7.96
2017-12-22T11:29:29.839Z,8.09
2017-12-22T11:32:01.779Z,7.92
2017-12-22T11:34:33.526Z,8.11
2017-12-22T11:37:05.567Z,8.10
2017-12-22T11:39:39.135Z,8.00
2017-12-22T11:42:10.834Z,7.91
2017-12-22T11:44:41.733Z,7.91
2017-12-22T11:47:15.478Z,7.89
2017-12-22T11:49:46.961Z,7.74
2017-12-22T11:52:18.378Z,7.41
2017-12-22T11:54:48.728Z,7.47
2017-12-22T11:57:18.656Z,7.57
2017-12-22T11:59:49.038Z,7.44
2017-12-22T12:02:19.331Z,7.54
2017-12-22T12:04:49.432Z,7.71
2017-12-22T12:07:19.324Z,7.94
2017-12-22T12:09:49.638Z,7.82
2017-12-22T12:12:20.360Z,7.77
2017-12-22T12:14:52.431Z,7.79
2017-12-22T12:17:22.890Z,7.79
2017-12-22T12:19:53.419Z,7.80
2017-12-22T12:22:24.359Z,8.05
2017-12-22T12:24:55.404Z,7.97
2017-12-22T12:27:26.011Z,8.11
2017-12-22T12:29:57.098Z,8.00
2017-12-22T12:32:27.019Z,7.93
2017-12-22T12:34:57.122Z,8.00
2017-12-22T12:38:35.042Z,8.00
2017-12-22T12:41:05.468Z,8.19
2017-12-22T12:43:37.392Z,7.97
2017-12-22T12:46:11.428Z,8.18
2017-12-22T12:48:44.311Z,8.16
2017-12-22T12:51:14.368Z,8.45
2017-12-22T12:53:45.630Z,8.32
2017-12-22T12:56:16.898Z,8.23
2017-12-22T12:58:47.545Z,8.19
2017-12-22T13:01:19.310Z,8.06
2017-12-22T13:03:50.475Z,8.32
2017-12-22T13:06:24.209Z,8.45
2017-12-22T13:08:54.342Z,8.17
2017-12-22T13:11:26.557Z,8.59
2017-12-22T13:13:58.611Z,8.43
2017-12-22T13:16:29.728Z,8.36
2017-12-22T13:18:59.767Z,8.34
2017-12-22T13:21:30.420Z,8.34
2017-12-22T13:24:00.745Z,8.21
2017-12-22T13:26:31.181Z,8.14
2017-12-22T13:29:01.464Z,7.87
2017-12-22T13:31:32.806Z,7.84
2017-12-22T13:34:04.942Z,7.79
2017-12-22T13:36:35.258Z,7.64
2017-12-22T13:41:41.718Z,7.50
2017-12-22T13:44:12.162Z,7.47
2017-12-22T13:46:42.174Z,7.51
2017-12-22T13:49:12.916Z,7.55
2017-12-22T13:51:43.863Z,7.44
2017-12-22T13:54:14.908Z,7.38
2017-12-22T13:56:55.139Z,7.34
2017-12-22T13:59:44.204Z,7.48
2017-12-22T14:02:14.518Z,7.32
2017-12-22T14:04:46.057Z,7.46
2017-12-22T14:07:16.383Z,7.37
2017-12-22T14:09:56.869Z,7.39
2017-12-22T14:12:27.556Z,7.22
2017-12-22T14:14:59.529Z,7.25
2017-12-22T14:17:30.280Z,7.22
2017-12-22T14:20:01.649Z,7.39
2017-12-22T14:22:35.256Z,7.35
2017-12-22T14:25:08.788Z,7.30
2017-12-22T14:27:39.526Z,7.34
2017-12-22T14:30:23.291Z,7.43
2017-12-22T14:32:55.092Z,7.39
2017-12-22T14:35:42.456Z,7.30
2017-12-22T14:38:13.549Z,7.27
2017-12-22T14:40:46.356Z,7.38
2017-12-22T14:43:24.672Z,7.13
2017-12-22T14:45:57.313Z,7.41
2017-12-22T14:48:28.739Z,7.22
2017-12-22T14:51:01.974Z,7.05
2017-12-22T14:53:32.694Z,6.85
